الصفحة الرئيسية
METAR-TAF:

METAR-TAF

مطار :

مطار باماكو موديبو كيتا الدولي

باماكو, مالي

دائرة عرض: 12-32N, خط طول: 007-57W, ارتفاع: 380 متر

مراقبة الطقس الحالي

تاريخ ووقت الإصدار 31 دقيقة قبل الساعة 14:30UTC
ريح 11 عقدة من الشمال الشرقي, الاتجاه يتراوح بين الشمال و الشرق
درجة الحرارة 34°درجة مئوية
الرطوبة 12%
ضغط 1016 hPa
الرؤية 10 كم أو أكثر
الغيوم لا تقل 1500 م ولا وجود لمزنة ركامية السحاب الأسود

METAR: GABS 141430Z 04011KT 010V080 CAVOK 34/01 Q1016 NOSIG

زمن: 15:01 (15:01 UTC)

توقعات

تاريخ ووقت الإصدار 4ساعات و 1 دقيقة قبل الساعة 11:00UTC
التوقعات صالحة من14 الساعة 12 UTC إلى 15 الساعة 18 UTC
ريح 10 عقدة من الشرق/الشمال الشرقي
الرؤية 10 كم أو أكثر
الغيوم لا تقل 1500 م ولا وجود لمزنة ركامية السحاب الأسود

TAF: GABS 141100Z 1412/1518 07010KT CAVOK

أرصاد الطقس والتوقعات من أكثر من 4000 مطار (تقارير الطقس للمطار METAR والتنبؤ بالطقس بالمطارTAF).

المحطات المتاحة هي النقط الصفراء والحمراء على الخريطة.

حرك المؤشر فوق النقطة لمعرفة اسم المحطة.

ثم انقر لمعرفة أرصاد وتوقعات الطقس.

لتغيير الخارطة: اضغط على الأزرار الخضراء مع رمز الصليب الأسود للتكبير. على الزر الأخضر مع شرطة للتصغير، أو على الأسهم الخضراء للخرائط المجاورة.


METAR-TAF: